sensor_id;sensor_type;location;lat;lon;timestamp;temperature;humidity
20337;DHT22;10326;53.660;10.200;2022-11-23T00:01:30;5.70;78.30
20337;DHT22;10326;53.660;10.200;2022-11-23T00:04:00;5.70;78.40
20337;DHT22;10326;53.660;10.200;2022-11-23T00:06:29;5.70;78.30
20337;DHT22;10326;53.660;10.200;2022-11-23T00:08:58;5.70;78.30
20337;DHT22;10326;53.660;10.200;2022-11-23T00:11:26;5.80;78.40
20337;DHT22;10326;53.660;10.200;2022-11-23T00:13:54;5.70;78.40
20337;DHT22;10326;53.660;10.200;2022-11-23T00:16:24;5.70;78.40
20337;DHT22;10326;53.660;10.200;2022-11-23T00:18:52;5.80;78.60
20337;DHT22;10326;53.660;10.200;2022-11-23T00:21:20;5.80;78.70
20337;DHT22;10326;53.660;10.200;2022-11-23T00:23:48;5.80;79.20
20337;DHT22;10326;53.660;10.200;2022-11-23T00:26:17;5.80;78.70
20337;DHT22;10326;53.660;10.200;2022-11-23T00:28:46;5.80;78.80
20337;DHT22;10326;53.660;10.200;2022-11-23T00:31:17;5.80;78.70
20337;DHT22;10326;53.660;10.200;2022-11-23T00:33:47;5.80;78.80
20337;DHT22;10326;53.660;10.200;2022-11-23T00:36:16;5.90;78.80
20337;DHT22;10326;53.660;10.200;2022-11-23T00:38:43;5.90;78.80
20337;DHT22;10326;53.660;10.200;2022-11-23T00:41:12;5.90;78.70
20337;DHT22;10326;53.660;10.200;2022-11-23T00:43:41;5.90;78.80
20337;DHT22;10326;53.660;10.200;2022-11-23T00:46:11;5.90;78.80
20337;DHT22;10326;53.660;10.200;2022-11-23T00:48:40;5.90;78.80
20337;DHT22;10326;53.660;10.200;2022-11-23T00:51:09;6.00;78.80
20337;DHT22;10326;53.660;10.200;2022-11-23T00:53:38;6.00;78.90
20337;DHT22;10326;53.660;10.200;2022-11-23T00:56:05;6.00;78.80
20337;DHT22;10326;53.660;10.200;2022-11-23T00:58:33;6.00;78.80
20337;DHT22;10326;53.660;10.200;2022-11-23T01:01:07;6.00;78.90
20337;DHT22;10326;53.660;10.200;2022-11-23T01:03:36;6.00;78.80
20337;DHT22;10326;53.660;10.200;2022-11-23T01:06:07;6.00;78.80
20337;DHT22;10326;53.660;10.200;2022-11-23T01:08:35;6.00;78.80
20337;DHT22;10326;53.660;10.200;2022-11-23T01:11:04;6.10;78.90
20337;DHT22;10326;53.660;10.200;2022-11-23T01:13:34;6.10;78.90
20337;DHT22;10326;53.660;10.200;2022-11-23T01:16:01;6.10;78.90
20337;DHT22;10326;53.660;10.200;2022-11-23T01:18:29;6.10;79.00
20337;DHT22;10326;53.660;10.200;2022-11-23T01:20:57;6.10;78.90
20337;DHT22;10326;53.660;10.200;2022-11-23T01:23:27;6.10;78.90
20337;DHT22;10326;53.660;10.200;2022-11-23T01:25:55;6.10;78.90
20337;DHT22;10326;53.660;10.200;2022-11-23T01:28:22;6.10;78.90
20337;DHT22;10326;53.660;10.200;2022-11-23T01:30:49;6.20;79.00
20337;DHT22;10326;53.660;10.200;2022-11-23T01:33:16;6.20;78.90
20337;DHT22;10326;53.660;10.200;2022-11-23T01:35:46;6.20;78.90
20337;DHT22;10326;53.660;10.200;2022-11-23T01:38:13;6.20;78.90
20337;DHT22;10326;53.660;10.200;2022-11-23T01:40:41;6.20;78.90
20337;DHT22;10326;53.660;10.200;2022-11-23T01:43:14;6.20;78.90
20337;DHT22;10326;53.660;10.200;2022-11-23T01:45:42;6.20;79.00
20337;DHT22;10326;53.660;10.200;2022-11-23T01:48:14;6.20;79.00
20337;DHT22;10326;53.660;10.200;2022-11-23T01:50:48;6.20;79.10
20337;DHT22;10326;53.660;10.200;2022-11-23T01:53:18;6.30;79.10
20337;DHT22;10326;53.660;10.200;2022-11-23T01:55:48;6.30;79.10
20337;DHT22;10326;53.660;10.200;2022-11-23T01:58:20;6.30;79.10
20337;DHT22;10326;53.660;10.200;2022-11-23T02:00:48;6.30;79.10
20337;DHT22;10326;53.660;10.200;2022-11-23T02:03:16;6.30;79.10
20337;DHT22;10326;53.660;10.200;2022-11-23T02:05:47;6.30;79.70
20337;DHT22;10326;53.660;10.200;2022-11-23T02:08:17;6.30;79.10
20337;DHT22;10326;53.660;10.200;2022-11-23T02:10:46;6.30;79.10
20337;DHT22;10326;53.660;10.200;2022-11-23T02:13:14;6.40;79.10
20337;DHT22;10326;53.660;10.200;2022-11-23T02:15:41;6.40;79.10
20337;DHT22;10326;53.660;10.200;2022-11-23T02:18:12;6.40;79.10
20337;DHT22;10326;53.660;10.200;2022-11-23T02:20:42;6.40;79.20
20337;DHT22;10326;53.660;10.200;2022-11-23T02:23:19;6.40;79.10
20337;DHT22;10326;53.660;10.200;2022-11-23T02:25:57;6.40;79.20
20337;DHT22;10326;53.660;10.200;2022-11-23T02:28:29;6.40;79.10
20337;DHT22;10326;53.660;10.200;2022-11-23T02:31:00;6.40;79.00
20337;DHT22;10326;53.660;10.200;2022-11-23T02:33:28;6.40;79.00
20337;DHT22;10326;53.660;10.200;2022-11-23T02:35:56;6.50;79.20
20337;DHT22;10326;53.660;10.200;2022-11-23T02:38:27;6.50;79.20
20337;DHT22;10326;53.660;10.200;2022-11-23T02:40:58;6.50;79.20
20337;DHT22;10326;53.660;10.200;2022-11-23T02:43:25;6.50;79.10
20337;DHT22;10326;53.660;10.200;2022-11-23T02:45:55;6.50;79.10
20337;DHT22;10326;53.660;10.200;2022-11-23T02:48:24;6.50;79.10
20337;DHT22;10326;53.660;10.200;2022-11-23T02:50:51;6.50;79.10
20337;DHT22;10326;53.660;10.200;2022-11-23T02:53:18;6.50;79.10
20337;DHT22;10326;53.660;10.200;2022-11-23T02:55:46;6.50;79.70
20337;DHT22;10326;53.660;10.200;2022-11-23T02:58:14;6.60;79.10
20337;DHT22;10326;53.660;10.200;2022-11-23T03:00:41;6.60;79.20
20337;DHT22;10326;53.660;10.200;2022-11-23T03:03:08;6.60;79.20
20337;DHT22;10326;53.660;10.200;2022-11-23T03:05:35;6.60;79.20
20337;DHT22;10326;53.660;10.200;2022-11-23T03:08:05;6.60;79.10
20337;DHT22;10326;53.660;10.200;2022-11-23T03:10:32;6.60;79.20
20337;DHT22;10326;53.660;10.200;2022-11-23T03:13:00;6.60;79.10
20337;DHT22;10326;53.660;10.200;2022-11-23T03:15:32;6.60;79.10
20337;DHT22;10326;53.660;10.200;2022-11-23T03:18:02;6.60;79.20
20337;DHT22;10326;53.660;10.200;2022-11-23T03:20:29;6.60;79.10
20337;DHT22;10326;53.660;10.200;2022-11-23T03:22:57;6.70;79.10
20337;DHT22;10326;53.660;10.200;2022-11-23T03:25:25;6.70;79.20
20337;DHT22;10326;53.660;10.200;2022-11-23T03:27:54;6.70;79.10
20337;DHT22;10326;53.660;10.200;2022-11-23T03:30:21;6.70;79.20
20337;DHT22;10326;53.660;10.200;2022-11-23T03:32:50;6.70;79.20
20337;DHT22;10326;53.660;10.200;2022-11-23T03:35:18;6.70;79.20
20337;DHT22;10326;53.660;10.200;2022-11-23T03:38:03;6.70;79.20
20337;DHT22;10326;53.660;10.200;2022-11-23T03:40:31;6.70;79.20
20337;DHT22;10326;53.660;10.200;2022-11-23T03:43:15;6.70;79.30
20337;DHT22;10326;53.660;10.200;2022-11-23T03:45:42;6.70;79.30
20337;DHT22;10326;53.660;10.200;2022-11-23T03:48:10;6.70;79.30
20337;DHT22;10326;53.660;10.200;2022-11-23T03:50:38;6.70;79.30
20337;DHT22;10326;53.660;10.200;2022-11-23T03:53:06;6.70;79.80
20337;DHT22;10326;53.660;10.200;2022-11-23T03:55:33;6.70;79.30
20337;DHT22;10326;53.660;10.200;2022-11-23T03:58:02;6.70;79.40
20337;DHT22;10326;53.660;10.200;2022-11-23T04:00:33;6.70;79.40
20337;DHT22;10326;53.660;10.200;2022-11-23T04:03:01;6.70;79.30
20337;DHT22;10326;53.660;10.200;2022-11-23T04:05:48;6.70;79.40
20337;DHT22;10326;53.660;10.200;2022-11-23T04:08:52;6.70;79.30
20337;DHT22;10326;53.660;10.200;2022-11-23T04:11:31;6.70;79.20
20337;DHT22;10326;53.660;10.200;2022-11-23T04:14:00;6.70;79.20
20337;DHT22;10326;53.660;10.200;2022-11-23T04:16:27;6.70;79.20
20337;DHT22;10326;53.660;10.200;2022-11-23T04:18:55;6.70;79.20
20337;DHT22;10326;53.660;10.200;2022-11-23T04:21:23;6.70;79.20
20337;DHT22;10326;53.660;10.200;2022-11-23T04:23:51;6.70;79.20
20337;DHT22;10326;53.660;10.200;2022-11-23T04:26:18;6.70;79.30
20337;DHT22;10326;53.660;10.200;2022-11-23T04:28:46;6.70;79.30
20337;DHT22;10326;53.660;10.200;2022-11-23T04:31:14;6.70;79.40
20337;DHT22;10326;53.660;10.200;2022-11-23T04:33:59;6.70;79.40
20337;DHT22;10326;53.660;10.200;2022-11-23T04:36:28;6.70;79.40
20337;DHT22;10326;53.660;10.200;2022-11-23T04:38:56;6.70;79.40
20337;DHT22;10326;53.660;10.200;2022-11-23T04:41:33;6.70;79.50
20337;DHT22;10326;53.660;10.200;2022-11-23T04:44:02;6.70;79.50
20337;DHT22;10326;53.660;10.200;2022-11-23T04:46:29;6.70;79.60
20337;DHT22;10326;53.660;10.200;2022-11-23T04:48:58;6.70;79.60
20337;DHT22;10326;53.660;10.200;2022-11-23T04:51:28;6.70;79.60
20337;DHT22;10326;53.660;10.200;2022-11-23T04:53:55;6.80;79.60
20337;DHT22;10326;53.660;10.200;2022-11-23T04:56:25;6.80;79.70
20337;DHT22;10326;53.660;10.200;2022-11-23T04:58:52;6.80;79.70
20337;DHT22;10326;53.660;10.200;2022-11-23T05:01:19;6.80;79.70
20337;DHT22;10326;53.660;10.200;2022-11-23T05:04:05;6.80;79.70
20337;DHT22;10326;53.660;10.200;2022-11-23T05:06:33;6.80;79.70
20337;DHT22;10326;53.660;10.200;2022-11-23T05:09:02;6.80;79.70
20337;DHT22;10326;53.660;10.200;2022-11-23T05:11:55;6.80;79.70
20337;DHT22;10326;53.660;10.200;2022-11-23T05:14:22;6.80;79.60
20337;DHT22;10326;53.660;10.200;2022-11-23T05:16:49;6.80;79.60
20337;DHT22;10326;53.660;10.200;2022-11-23T05:19:16;6.80;79.50
20337;DHT22;10326;53.660;10.200;2022-11-23T05:21:45;6.90;79.60
20337;DHT22;10326;53.660;10.200;2022-11-23T05:24:13;6.80;79.60
20337;DHT22;10326;53.660;10.200;2022-11-23T05:26:50;6.90;79.70
20337;DHT22;10326;53.660;10.200;2022-11-23T05:29:17;6.80;79.60
20337;DHT22;10326;53.660;10.200;2022-11-23T05:31:44;6.90;79.70
20337;DHT22;10326;53.660;10.200;2022-11-23T05:34:13;6.90;79.70
20337;DHT22;10326;53.660;10.200;2022-11-23T05:36:46;6.80;79.60
20337;DHT22;10326;53.660;10.200;2022-11-23T05:39:14;6.90;79.70
20337;DHT22;10326;53.660;10.200;2022-11-23T05:41:43;6.90;79.80
20337;DHT22;10326;53.660;10.200;2022-11-23T05:44:24;6.90;79.80
20337;DHT22;10326;53.660;10.200;2022-11-23T05:46:51;6.90;79.80
20337;DHT22;10326;53.660;10.200;2022-11-23T05:49:20;6.90;79.80
20337;DHT22;10326;53.660;10.200;2022-11-23T05:51:48;6.90;79.80
20337;DHT22;10326;53.660;10.200;2022-11-23T05:54:16;6.90;79.80
20337;DHT22;10326;53.660;10.200;2022-11-23T05:56:52;6.90;79.80
20337;DHT22;10326;53.660;10.200;2022-11-23T05:59:23;6.90;79.80
20337;DHT22;10326;53.660;10.200;2022-11-23T06:01:56;7.00;79.90
20337;DHT22;10326;53.660;10.200;2022-11-23T06:04:28;7.00;79.80
20337;DHT22;10326;53.660;10.200;2022-11-23T06:06:58;7.00;79.80
20337;DHT22;10326;53.660;10.200;2022-11-23T06:09:29;7.00;79.80
20337;DHT22;10326;53.660;10.200;2022-11-23T06:12:04;7.00;79.80
20337;DHT22;10326;53.660;10.200;2022-11-23T06:14:33;7.00;80.00
20337;DHT22;10326;53.660;10.200;2022-11-23T06:17:00;7.00;80.00
20337;DHT22;10326;53.660;10.200;2022-11-23T06:19:35;7.00;80.00
20337;DHT22;10326;53.660;10.200;2022-11-23T06:22:04;7.00;80.00
20337;DHT22;10326;53.660;10.200;2022-11-23T06:24:37;7.00;80.10
20337;DHT22;10326;53.660;10.200;2022-11-23T06:27:22;7.00;80.10
20337;DHT22;10326;53.660;10.200;2022-11-23T06:29:51;7.00;80.00
20337;DHT22;10326;53.660;10.200;2022-11-23T06:32:19;7.00;80.10
20337;DHT22;10326;53.660;10.200;2022-11-23T06:34:46;7.00;80.70
20337;DHT22;10326;53.660;10.200;2022-11-23T06:37:15;7.00;80.20
20337;DHT22;10326;53.660;10.200;2022-11-23T06:39:47;7.00;80.10
20337;DHT22;10326;53.660;10.200;2022-11-23T06:42:14;7.00;80.20
20337;DHT22;10326;53.660;10.200;2022-11-23T06:44:42;7.00;80.30
20337;DHT22;10326;53.660;10.200;2022-11-23T06:47:09;7.00;80.30
20337;DHT22;10326;53.660;10.200;2022-11-23T06:49:36;7.00;80.20
20337;DHT22;10326;53.660;10.200;2022-11-23T06:52:12;7.00;80.20
20337;DHT22;10326;53.660;10.200;2022-11-23T06:54:41;7.00;80.30
20337;DHT22;10326;53.660;10.200;2022-11-23T06:57:08;7.00;80.40
20337;DHT22;10326;53.660;10.200;2022-11-23T06:59:36;7.00;80.40
20337;DHT22;10326;53.660;10.200;2022-11-23T07:02:04;7.00;80.50
20337;DHT22;10326;53.660;10.200;2022-11-23T07:04:35;7.10;80.60
20337;DHT22;10326;53.660;10.200;2022-11-23T07:07:06;7.10;80.70
20337;DHT22;10326;53.660;10.200;2022-11-23T07:09:45;7.10;80.70
20337;DHT22;10326;53.660;10.200;2022-11-23T07:12:35;7.10;80.80
20337;DHT22;10326;53.660;10.200;2022-11-23T07:15:04;7.10;80.80
20337;DHT22;10326;53.660;10.200;2022-11-23T07:17:38;7.10;80.80
20337;DHT22;10326;53.660;10.200;2022-11-23T07:20:06;7.20;81.00
20337;DHT22;10326;53.660;10.200;2022-11-23T07:22:34;7.20;81.00
20337;DHT22;10326;53.660;10.200;2022-11-23T07:25:04;7.20;81.00
20337;DHT22;10326;53.660;10.200;2022-11-23T07:27:31;7.20;81.10
20337;DHT22;10326;53.660;10.200;2022-11-23T07:30:00;7.20;81.00
20337;DHT22;10326;53.660;10.200;2022-11-23T07:32:27;7.20;81.10
20337;DHT22;10326;53.660;10.200;2022-11-23T07:34:54;7.30;81.20
20337;DHT22;10326;53.660;10.200;2022-11-23T07:37:21;7.30;81.20
20337;DHT22;10326;53.660;10.200;2022-11-23T07:39:48;7.30;81.20
20337;DHT22;10326;53.660;10.200;2022-11-23T07:42:19;7.30;81.30
20337;DHT22;10326;53.660;10.200;2022-11-23T07:44:46;7.40;81.40
20337;DHT22;10326;53.660;10.200;2022-11-23T07:47:13;7.30;81.30
20337;DHT22;10326;53.660;10.200;2022-11-23T07:49:40;7.40;81.40
20337;DHT22;10326;53.660;10.200;2022-11-23T07:52:07;7.40;81.50
20337;DHT22;10326;53.660;10.200;2022-11-23T07:54:34;7.50;81.60
20337;DHT22;10326;53.660;10.200;2022-11-23T07:57:01;7.50;81.70
20337;DHT22;10326;53.660;10.200;2022-11-23T07:59:30;7.50;81.70
20337;DHT22;10326;53.660;10.200;2022-11-23T08:01:57;7.50;81.80
20337;DHT22;10326;53.660;10.200;2022-11-23T08:04:24;7.50;81.80
20337;DHT22;10326;53.660;10.200;2022-11-23T08:06:51;7.50;81.80
20337;DHT22;10326;53.660;10.200;2022-11-23T08:09:19;7.60;82.00
20337;DHT22;10326;53.660;10.200;2022-11-23T08:11:46;7.60;82.00
20337;DHT22;10326;53.660;10.200;2022-11-23T08:14:13;7.60;82.00
20337;DHT22;10326;53.660;10.200;2022-11-23T08:16:42;7.70;82.10
20337;DHT22;10326;53.660;10.200;2022-11-23T08:19:09;7.70;82.00
20337;DHT22;10326;53.660;10.200;2022-11-23T08:21:36;7.70;82.00
20337;DHT22;10326;53.660;10.200;2022-11-23T08:24:04;7.70;81.90
20337;DHT22;10326;53.660;10.200;2022-11-23T08:26:31;7.70;81.90
20337;DHT22;10326;53.660;10.200;2022-11-23T08:28:58;7.70;81.90
20337;DHT22;10326;53.660;10.200;2022-11-23T08:31:25;7.80;82.00
20337;DHT22;10326;53.660;10.200;2022-11-23T08:33:54;7.80;82.00
20337;DHT22;10326;53.660;10.200;2022-11-23T08:36:21;7.80;82.00
20337;DHT22;10326;53.660;10.200;2022-11-23T08:38:48;7.80;82.00
20337;DHT22;10326;53.660;10.200;2022-11-23T08:41:16;7.80;82.10
20337;DHT22;10326;53.660;10.200;2022-11-23T08:43:45;7.90;82.20
20337;DHT22;10326;53.660;10.200;2022-11-23T08:46:12;7.90;82.20
20337;DHT22;10326;53.660;10.200;2022-11-23T08:48:39;7.90;82.20
20337;DHT22;10326;53.660;10.200;2022-11-23T08:51:08;7.90;82.30
20337;DHT22;10326;53.660;10.200;2022-11-23T08:53:36;7.90;82.40
20337;DHT22;10326;53.660;10.200;2022-11-23T08:56:05;8.00;82.50
20337;DHT22;10326;53.660;10.200;2022-11-23T08:58:33;8.00;82.60
20337;DHT22;10326;53.660;10.200;2022-11-23T09:01:01;8.00;82.70
20337;DHT22;10326;53.660;10.200;2022-11-23T09:03:28;8.00;82.70
20337;DHT22;10326;53.660;10.200;2022-11-23T09:05:58;8.10;82.70
20337;DHT22;10326;53.660;10.200;2022-11-23T09:08:27;8.10;82.80
20337;DHT22;10326;53.660;10.200;2022-11-23T09:10:58;8.10;82.70
20337;DHT22;10326;53.660;10.200;2022-11-23T09:13:26;8.20;82.90
20337;DHT22;10326;53.660;10.200;2022-11-23T09:15:56;8.20;82.80
20337;DHT22;10326;53.660;10.200;2022-11-23T09:18:24;8.20;82.90
20337;DHT22;10326;53.660;10.200;2022-11-23T09:20:51;8.30;82.90
20337;DHT22;10326;53.660;10.200;2022-11-23T09:23:19;8.30;82.90
20337;DHT22;10326;53.660;10.200;2022-11-23T09:25:47;8.30;82.90
20337;DHT22;10326;53.660;10.200;2022-11-23T09:28:15;8.40;83.10
20337;DHT22;10326;53.660;10.200;2022-11-23T09:30:44;8.40;83.00
20337;DHT22;10326;53.660;10.200;2022-11-23T09:33:12;8.40;83.00
20337;DHT22;10326;53.660;10.200;2022-11-23T09:35:39;8.40;83.00
20337;DHT22;10326;53.660;10.200;2022-11-23T09:38:06;8.50;83.00
20337;DHT22;10326;53.660;10.200;2022-11-23T09:40:36;8.50;83.00
20337;DHT22;10326;53.660;10.200;2022-11-23T09:43:36;8.50;83.00
20337;DHT22;10326;53.660;10.200;2022-11-23T09:46:12;8.50;83.30
20337;DHT22;10326;53.660;10.200;2022-11-23T09:48:58;8.60;83.20
20337;DHT22;10326;53.660;10.200;2022-11-23T09:51:37;8.60;83.20
20337;DHT22;10326;53.660;10.200;2022-11-23T09:54:21;8.60;83.60
20337;DHT22;10326;53.660;10.200;2022-11-23T09:56:52;8.70;83.20
20337;DHT22;10326;53.660;10.200;2022-11-23T09:59:32;8.70;83.10
20337;DHT22;10326;53.660;10.200;2022-11-23T10:02:04;8.70;83.30
20337;DHT22;10326;53.660;10.200;2022-11-23T10:04:33;8.70;83.20
20337;DHT22;10326;53.660;10.200;2022-11-23T10:07:08;8.80;83.40
20337;DHT22;10326;53.660;10.200;2022-11-23T10:09:47;8.80;83.40
20337;DHT22;10326;53.660;10.200;2022-11-23T10:12:30;8.80;83.40
20337;DHT22;10326;53.660;10.200;2022-11-23T10:15:11;8.90;83.40
20337;DHT22;10326;53.660;10.200;2022-11-23T10:18:02;8.90;83.40
20337;DHT22;10326;53.660;10.200;2022-11-23T10:20:47;9.00;83.70
20337;DHT22;10326;53.660;10.200;2022-11-23T10:23:31;9.00;83.60
20337;DHT22;10326;53.660;10.200;2022-11-23T10:26:08;9.00;83.80
20337;DHT22;10326;53.660;10.200;2022-11-23T10:28:36;9.00;83.80
20337;DHT22;10326;53.660;10.200;2022-11-23T10:31:11;9.10;83.70
20337;DHT22;10326;53.660;10.200;2022-11-23T10:33:46;9.10;83.90
20337;DHT22;10326;53.660;10.200;2022-11-23T10:36:18;9.20;84.00
20337;DHT22;10326;53.660;10.200;2022-11-23T10:38:47;9.20;83.90
20337;DHT22;10326;53.660;10.200;2022-11-23T10:41:15;9.30;84.00
20337;DHT22;10326;53.660;10.200;2022-11-23T10:43:47;9.30;84.00
20337;DHT22;10326;53.660;10.200;2022-11-23T10:46:30;9.40;84.10
20337;DHT22;10326;53.660;10.200;2022-11-23T10:49:12;9.40;84.20
20337;DHT22;10326;53.660;10.200;2022-11-23T10:51:49;9.50;84.20
20337;DHT22;10326;53.660;10.200;2022-11-23T10:54:32;9.50;84.10
20337;DHT22;10326;53.660;10.200;2022-11-23T10:57:02;9.50;83.80
20337;DHT22;10326;53.660;10.200;2022-11-23T10:59:56;9.60;83.80
20337;DHT22;10326;53.660;10.200;2022-11-23T11:02:25;9.60;83.80
20337;DHT22;10326;53.660;10.200;2022-11-23T11:05:14;9.60;83.70
20337;DHT22;10326;53.660;10.200;2022-11-23T11:07:50;9.70;84.00
20337;DHT22;10326;53.660;10.200;2022-11-23T11:10:32;9.70;83.80
20337;DHT22;10326;53.660;10.200;2022-11-23T11:13:02;9.70;83.90
20337;DHT22;10326;53.660;10.200;2022-11-23T11:15:29;9.70;83.80
20337;DHT22;10326;53.660;10.200;2022-11-23T11:17:58;9.80;83.80
20337;DHT22;10326;53.660;10.200;2022-11-23T11:20:30;9.80;83.80
20337;DHT22;10326;53.660;10.200;2022-11-23T11:23:00;9.80;83.90
20337;DHT22;10326;53.660;10.200;2022-11-23T11:25:31;9.90;83.90
20337;DHT22;10326;53.660;10.200;2022-11-23T11:28:01;9.90;83.90
20337;DHT22;10326;53.660;10.200;2022-11-23T11:30:39;9.90;83.90
20337;DHT22;10326;53.660;10.200;2022-11-23T11:33:16;9.90;83.90
20337;DHT22;10326;53.660;10.200;2022-11-23T11:35:49;10.00;84.00
20337;DHT22;10326;53.660;10.200;2022-11-23T11:38:20;10.00;83.80
20337;DHT22;10326;53.660;10.200;2022-11-23T11:40:51;10.00;83.80
20337;DHT22;10326;53.660;10.200;2022-11-23T11:43:21;10.10;83.80
20337;DHT22;10326;53.660;10.200;2022-11-23T11:45:52;10.10;83.80
20337;DHT22;10326;53.660;10.200;2022-11-23T11:48:26;10.10;83.70
20337;DHT22;10326;53.660;10.200;2022-11-23T11:50:57;10.10;83.50
20337;DHT22;10326;53.660;10.200;2022-11-23T11:53:30;10.10;83.40
20337;DHT22;10326;53.660;10.200;2022-11-23T11:56:05;10.10;83.50
20337;DHT22;10326;53.660;10.200;2022-11-23T11:58:36;10.20;83.80
20337;DHT22;10326;53.660;10.200;2022-11-23T12:01:12;10.20;83.90
20337;DHT22;10326;53.660;10.200;2022-11-23T12:03:51;10.20;84.10
20337;DHT22;10326;53.660;10.200;2022-11-23T12:06:26;10.20;84.50
20337;DHT22;10326;53.660;10.200;2022-11-23T12:09:02;10.30;85.00
20337;DHT22;10326;53.660;10.200;2022-11-23T12:11:33;10.30;85.00
20337;DHT22;10326;53.660;10.200;2022-11-23T12:14:03;10.40;84.90
20337;DHT22;10326;53.660;10.200;2022-11-23T12:16:38;10.40;85.20
20337;DHT22;10326;53.660;10.200;2022-11-23T12:19:18;10.50;84.70
20337;DHT22;10326;53.660;10.200;2022-11-23T12:22:07;10.50;84.40
20337;DHT22;10326;53.660;10.200;2022-11-23T12:25:03;10.50;84.30
20337;DHT22;10326;53.660;10.200;2022-11-23T12:27:48;10.60;84.30
20337;DHT22;10326;53.660;10.200;2022-11-23T12:30:23;10.60;84.30
20337;DHT22;10326;53.660;10.200;2022-11-23T12:33:12;10.60;84.40
20337;DHT22;10326;53.660;10.200;2022-11-23T12:36:08;10.60;85.00
20337;DHT22;10326;53.660;10.200;2022-11-23T12:38:54;10.70;86.80
20337;DHT22;10326;53.660;10.200;2022-11-23T12:41:23;10.80;86.90
20337;DHT22;10326;53.660;10.200;2022-11-23T12:43:59;10.90;86.30
20337;DHT22;10326;53.660;10.200;2022-11-23T12:46:38;11.00;85.70
20337;DHT22;10326;53.660;10.200;2022-11-23T12:49:19;11.10;86.70
20337;DHT22;10326;53.660;10.200;2022-11-23T12:52:01;11.30;87.80
20337;DHT22;10326;53.660;10.200;2022-11-23T12:54:53;11.50;88.20
20337;DHT22;10326;53.660;10.200;2022-11-23T12:57:28;11.70;88.40
20337;DHT22;10326;53.660;10.200;2022-11-23T13:00:01;12.00;88.30
20337;DHT22;10326;53.660;10.200;2022-11-23T13:02:57;12.20;87.60
20337;DHT22;10326;53.660;10.200;2022-11-23T13:06:05;12.40;85.90
20337;DHT22;10326;53.660;10.200;2022-11-23T13:09:04;12.50;84.30
20337;DHT22;10326;53.660;10.200;2022-11-23T13:11:51;12.60;83.30
20337;DHT22;10326;53.660;10.200;2022-11-23T13:14:31;12.50;82.70
20337;DHT22;10326;53.660;10.200;2022-11-23T13:17:12;12.50;82.50
20337;DHT22;10326;53.660;10.200;2022-11-23T13:22:55;12.40;82.30
20337;DHT22;10326;53.660;10.200;2022-11-23T13:25:26;12.30;82.60
20337;DHT22;10326;53.660;10.200;2022-11-23T13:27:56;12.20;82.50
20337;DHT22;10326;53.660;10.200;2022-11-23T13:30:28;12.20;82.50
20337;DHT22;10326;53.660;10.200;2022-11-23T13:33:01;12.10;82.50
20337;DHT22;10326;53.660;10.200;2022-11-23T13:35:52;12.10;82.40
20337;DHT22;10326;53.660;10.200;2022-11-23T13:38:35;12.10;82.10
20337;DHT22;10326;53.660;10.200;2022-11-23T13:44:28;11.90;81.80
20337;DHT22;10326;53.660;10.200;2022-11-23T13:47:02;11.90;82.00
20337;DHT22;10326;53.660;10.200;2022-11-23T13:49:39;11.90;82.00
20337;DHT22;10326;53.660;10.200;2022-11-23T13:52:27;11.80;81.80
20337;DHT22;10326;53.660;10.200;2022-11-23T13:54:59;11.70;81.90
20337;DHT22;10326;53.660;10.200;2022-11-23T13:57:30;11.70;82.00
20337;DHT22;10326;53.660;10.200;2022-11-23T14:03:45;11.60;82.10
20337;DHT22;10326;53.660;10.200;2022-11-23T14:06:20;11.60;82.10
20337;DHT22;10326;53.660;10.200;2022-11-23T14:08:53;11.60;82.00
20337;DHT22;10326;53.660;10.200;2022-11-23T14:11:27;11.60;82.00
20337;DHT22;10326;53.660;10.200;2022-11-23T14:13:57;11.50;82.00
20337;DHT22;10326;53.660;10.200;2022-11-23T14:16:45;11.50;82.00
20337;DHT22;10326;53.660;10.200;2022-11-23T14:19:25;11.50;81.90
20337;DHT22;10326;53.660;10.200;2022-11-23T14:22:02;11.40;81.90
20337;DHT22;10326;53.660;10.200;2022-11-23T14:24:49;11.40;82.00
20337;DHT22;10326;53.660;10.200;2022-11-23T14:27:33;11.30;81.90
20337;DHT22;10326;53.660;10.200;2022-11-23T14:30:32;11.30;81.90
20337;DHT22;10326;53.660;10.200;2022-11-23T14:33:22;11.30;81.80
20337;DHT22;10326;53.660;10.200;2022-11-23T14:36:02;11.30;81.80
20337;DHT22;10326;53.660;10.200;2022-11-23T14:38:53;11.20;81.80
20337;DHT22;10326;53.660;10.200;2022-11-23T14:41:28;11.20;81.70
20337;DHT22;10326;53.660;10.200;2022-11-23T14:43:59;11.20;81.70
20337;DHT22;10326;53.660;10.200;2022-11-23T14:46:28;11.10;81.60
20337;DHT22;10326;53.660;10.200;2022-11-23T14:49:02;11.10;81.50
20337;DHT22;10326;53.660;10.200;2022-11-23T14:51:32;11.00;81.50
20337;DHT22;10326;53.660;10.200;2022-11-23T14:54:05;11.00;81.60
20337;DHT22;10326;53.660;10.200;2022-11-23T14:56:36;11.00;81.50
20337;DHT22;10326;53.660;10.200;2022-11-23T14:59:06;10.90;81.30
20337;DHT22;10326;53.660;10.200;2022-11-23T15:01:36;10.90;81.30
20337;DHT22;10326;53.660;10.200;2022-11-23T15:04:07;10.90;81.30
20337;DHT22;10326;53.660;10.200;2022-11-23T15:06:41;10.80;81.20
20337;DHT22;10326;53.660;10.200;2022-11-23T15:09:21;10.80;81.10
20337;DHT22;10326;53.660;10.200;2022-11-23T15:12:05;10.70;80.90
20337;DHT22;10326;53.660;10.200;2022-11-23T15:14:33;10.70;80.80
20337;DHT22;10326;53.660;10.200;2022-11-23T15:17:13;10.60;80.70
20337;DHT22;10326;53.660;10.200;2022-11-23T15:19:41;10.60;80.60
20337;DHT22;10326;53.660;10.200;2022-11-23T15:22:13;10.50;80.50
20337;DHT22;10326;53.660;10.200;2022-11-23T15:24:43;10.50;80.50
20337;DHT22;10326;53.660;10.200;2022-11-23T15:27:14;10.40;80.50
20337;DHT22;10326;53.660;10.200;2022-11-23T15:29:51;10.30;80.40
20337;DHT22;10326;53.660;10.200;2022-11-23T15:32:23;10.30;80.90
20337;DHT22;10326;53.660;10.200;2022-11-23T15:34:53;10.20;80.90
20337;DHT22;10326;53.660;10.200;2022-11-23T15:37:23;10.20;80.40
20337;DHT22;10326;53.660;10.200;2022-11-23T15:39:52;10.20;80.40
20337;DHT22;10326;53.660;10.200;2022-11-23T15:42:22;10.10;80.30
20337;DHT22;10326;53.660;10.200;2022-11-23T15:44:50;10.10;80.40
20337;DHT22;10326;53.660;10.200;2022-11-23T15:47:22;10.00;80.40
20337;DHT22;10326;53.660;10.200;2022-11-23T15:49:56;10.00;80.40
20337;DHT22;10326;53.660;10.200;2022-11-23T15:52:27;9.90;80.30
20337;DHT22;10326;53.660;10.200;2022-11-23T15:54:55;9.90;80.40
20337;DHT22;10326;53.660;10.200;2022-11-23T15:57:24;9.80;80.30
20337;DHT22;10326;53.660;10.200;2022-11-23T15:59:56;9.80;80.40
20337;DHT22;10326;53.660;10.200;2022-11-23T16:02:27;9.70;80.30
20337;DHT22;10326;53.660;10.200;2022-11-23T16:05:11;9.70;80.30
20337;DHT22;10326;53.660;10.200;2022-11-23T16:07:50;9.70;80.40
20337;DHT22;10326;53.660;10.200;2022-11-23T16:10:20;9.60;80.40